createdAt,value
2018-10-03T00:01:36.547Z,11.90
2018-10-03T00:04:04.526Z,11.90
2018-10-03T00:06:32.308Z,12.00
2018-10-03T00:09:00.109Z,11.90
2018-10-03T00:11:28.190Z,11.80
2018-10-03T00:13:56.187Z,11.80
2018-10-03T00:16:23.974Z,11.80
2018-10-03T00:18:51.794Z,11.80
2018-10-03T00:21:19.564Z,11.70
2018-10-03T00:23:47.358Z,11.70
2018-10-03T00:26:15.253Z,11.70
2018-10-03T00:28:43.080Z,11.80
2018-10-03T00:31:10.925Z,11.80
2018-10-03T00:33:38.694Z,11.90
2018-10-03T00:36:06.484Z,11.80
2018-10-03T00:38:34.241Z,11.80
2018-10-03T00:41:02.276Z,11.70
2018-10-03T00:43:30.326Z,11.70
2018-10-03T00:45:58.071Z,11.60
2018-10-03T00:48:26.039Z,11.60
2018-10-03T00:50:53.812Z,11.60
2018-10-03T00:53:21.594Z,11.60
2018-10-03T00:55:49.347Z,11.60
2018-10-03T00:58:17.303Z,11.60
2018-10-03T01:00:45.184Z,11.60
2018-10-03T01:03:13.007Z,11.60
2018-10-03T01:05:41.264Z,11.50
2018-10-03T01:08:09.577Z,11.60
2018-10-03T01:10:38.478Z,11.60
2018-10-03T01:13:06.684Z,11.60
2018-10-03T01:15:35.647Z,11.60
2018-10-03T01:18:03.725Z,11.60
2018-10-03T01:20:31.612Z,11.60
2018-10-03T01:22:59.601Z,11.60
2018-10-03T01:25:27.808Z,11.60
2018-10-03T01:27:55.611Z,11.70
2018-10-03T01:30:23.483Z,11.70
2018-10-03T01:32:51.310Z,11.70
2018-10-03T01:35:19.195Z,11.70
2018-10-03T01:37:46.962Z,11.60
2018-10-03T01:40:14.836Z,11.70
2018-10-03T01:42:42.583Z,11.60
2018-10-03T01:45:10.530Z,11.50
2018-10-03T01:47:38.473Z,11.50
2018-10-03T01:50:06.554Z,11.50
2018-10-03T01:52:34.418Z,11.50
2018-10-03T01:55:02.242Z,11.60
2018-10-03T01:57:30.218Z,11.60
2018-10-03T01:59:58.148Z,11.60
2018-10-03T02:02:25.931Z,11.70
2018-10-03T02:04:53.768Z,11.60
2018-10-03T02:07:21.534Z,11.60
2018-10-03T02:09:49.299Z,11.60
2018-10-03T02:12:17.207Z,11.60
2018-10-03T02:14:44.994Z,11.60
2018-10-03T02:17:12.854Z,11.60
2018-10-03T02:19:40.807Z,11.70
2018-10-03T02:22:08.717Z,11.70
2018-10-03T02:24:36.435Z,11.70
2018-10-03T02:27:04.311Z,11.70
2018-10-03T02:29:32.047Z,11.70
2018-10-03T02:31:59.796Z,11.60
2018-10-03T02:34:27.627Z,11.60
2018-10-03T02:36:55.372Z,11.60
2018-10-03T02:39:23.139Z,11.60
2018-10-03T02:41:50.896Z,11.50
2018-10-03T02:44:18.689Z,11.50
2018-10-03T02:46:46.503Z,11.50
2018-10-03T02:49:14.408Z,11.60
2018-10-03T02:51:42.347Z,11.50
2018-10-03T02:54:10.243Z,11.50
2018-10-03T02:56:38.095Z,11.50
2018-10-03T02:59:06.030Z,11.50
2018-10-03T03:01:33.761Z,11.40
2018-10-03T03:04:01.502Z,11.40
2018-10-03T03:06:29.223Z,11.40
2018-10-03T03:08:57.071Z,11.50
2018-10-03T03:11:24.683Z,11.40
2018-10-03T03:13:52.416Z,11.40
2018-10-03T03:16:20.138Z,11.40
2018-10-03T03:18:48.056Z,11.40
2018-10-03T03:21:16.178Z,11.40
2018-10-03T03:23:44.035Z,11.40
2018-10-03T03:26:11.828Z,11.40
2018-10-03T03:28:39.634Z,11.40
2018-10-03T03:31:07.347Z,11.40
2018-10-03T03:33:35.177Z,11.50
2018-10-03T03:36:03.020Z,11.50
2018-10-03T03:38:30.751Z,11.50
2018-10-03T03:40:58.490Z,11.50
2018-10-03T03:43:26.250Z,11.50
2018-10-03T03:45:54.054Z,11.50
2018-10-03T03:48:21.984Z,11.50
2018-10-03T03:50:49.794Z,11.50
2018-10-03T03:53:17.662Z,11.50
2018-10-03T03:55:45.511Z,11.40
2018-10-03T03:58:13.372Z,11.50
2018-10-03T04:00:42.046Z,11.60
2018-10-03T04:03:09.905Z,11.60
2018-10-03T04:05:37.662Z,11.60
2018-10-03T04:08:05.474Z,11.60
2018-10-03T04:10:33.398Z,11.60
2018-10-03T04:13:01.199Z,11.60
2018-10-03T04:15:28.985Z,11.60
2018-10-03T04:17:57.012Z,11.50
2018-10-03T04:20:25.061Z,11.50
2018-10-03T04:22:52.850Z,11.50
2018-10-03T04:25:20.602Z,11.50
2018-10-03T04:27:48.581Z,11.50
2018-10-03T04:30:16.332Z,11.40
2018-10-03T04:32:44.158Z,11.40
2018-10-03T04:35:12.051Z,11.40
2018-10-03T04:37:39.828Z,11.50
2018-10-03T04:40:07.772Z,11.40
2018-10-03T04:42:35.762Z,11.50
2018-10-03T04:45:03.554Z,11.50
2018-10-03T04:47:31.286Z,11.50
2018-10-03T04:49:59.024Z,11.50
2018-10-03T04:52:26.979Z,11.50
2018-10-03T04:54:54.895Z,11.50
2018-10-03T04:57:22.642Z,11.50
2018-10-03T04:59:50.448Z,11.40
2018-10-03T05:02:18.471Z,11.50
2018-10-03T05:04:46.389Z,11.50
2018-10-03T05:07:14.112Z,11.50
2018-10-03T05:09:41.883Z,11.40
2018-10-03T05:12:09.653Z,11.40
2018-10-03T05:14:37.531Z,11.40
2018-10-03T05:17:05.450Z,11.40
2018-10-03T05:19:33.246Z,11.40
2018-10-03T05:22:01.035Z,11.40
2018-10-03T05:24:28.823Z,11.50
2018-10-03T05:26:56.914Z,11.50
2018-10-03T05:29:24.840Z,11.50
2018-10-03T05:31:52.588Z,11.40
2018-10-03T05:34:20.472Z,11.30
2018-10-03T05:36:48.291Z,11.30
2018-10-03T05:39:16.223Z,11.30
2018-10-03T05:41:44.023Z,11.30
2018-10-03T05:44:12.533Z,11.20
2018-10-03T05:46:40.904Z,11.20
2018-10-03T05:49:08.796Z,11.30
2018-10-03T05:51:37.528Z,11.20
2018-10-03T05:54:05.485Z,11.20
2018-10-03T05:56:33.243Z,11.20
2018-10-03T05:59:00.997Z,11.20
2018-10-03T06:01:28.820Z,11.20
2018-10-03T06:03:56.684Z,11.30
2018-10-03T06:06:24.423Z,11.30
2018-10-03T06:08:52.158Z,11.40
2018-10-03T06:11:19.879Z,11.40
2018-10-03T06:13:47.735Z,11.50
2018-10-03T06:16:15.689Z,11.50
2018-10-03T06:18:43.841Z,11.50
2018-10-03T06:21:11.578Z,11.40
2018-10-03T06:23:39.404Z,11.40
2018-10-03T06:26:07.295Z,11.50
2018-10-03T06:28:35.135Z,11.50
2018-10-03T06:31:03.047Z,11.60
2018-10-03T06:33:30.891Z,11.50
2018-10-03T06:35:58.730Z,11.50
2018-10-03T06:38:26.640Z,11.50
2018-10-03T06:40:54.655Z,11.40
2018-10-03T06:43:22.570Z,11.30
2018-10-03T06:45:50.465Z,11.30
2018-10-03T06:48:18.203Z,11.40
2018-10-03T06:50:46.185Z,11.40
2018-10-03T06:53:14.216Z,11.30
2018-10-03T06:55:42.106Z,11.40
2018-10-03T06:58:09.937Z,11.40
2018-10-03T07:00:37.725Z,11.40
2018-10-03T07:03:05.658Z,11.40
2018-10-03T07:05:33.459Z,11.40
2018-10-03T07:08:01.349Z,11.40
2018-10-03T07:10:29.298Z,11.50
2018-10-03T07:12:57.288Z,11.50
2018-10-03T07:15:25.095Z,11.50
2018-10-03T07:17:52.945Z,11.50
2018-10-03T07:20:20.957Z,11.60
2018-10-03T07:22:48.825Z,11.50
2018-10-03T07:25:16.644Z,11.70
2018-10-03T07:27:44.443Z,11.80
2018-10-03T07:30:12.272Z,11.90
2018-10-03T07:32:46.787Z,11.90
2018-10-03T07:35:14.635Z,12.00
2018-10-03T07:37:42.580Z,12.10
2018-10-03T07:40:10.663Z,12.30
2018-10-03T07:42:38.731Z,12.40
2018-10-03T07:45:06.891Z,12.40
2018-10-03T07:47:34.833Z,12.50
2018-10-03T07:50:02.795Z,12.30
2018-10-03T07:52:30.709Z,12.40
2018-10-03T07:54:58.739Z,12.50
2018-10-03T07:57:26.744Z,12.40
2018-10-03T07:59:54.515Z,12.40
2018-10-03T08:02:22.305Z,12.50
2018-10-03T08:04:50.468Z,12.50
2018-10-03T08:07:18.220Z,12.60
2018-10-03T08:09:46.694Z,12.70
2018-10-03T08:12:14.674Z,12.70
2018-10-03T08:14:42.458Z,12.70
2018-10-03T08:17:10.269Z,12.70
2018-10-03T08:19:38.082Z,12.50
2018-10-03T08:22:06.419Z,12.60
2018-10-03T08:24:34.243Z,12.60
2018-10-03T08:27:03.210Z,12.70
2018-10-03T08:29:30.991Z,12.70
2018-10-03T08:31:58.740Z,12.90
2018-10-03T08:34:26.640Z,13.00
2018-10-03T08:36:54.771Z,12.90
2018-10-03T08:39:22.849Z,12.70
2018-10-03T08:41:50.770Z,12.60
2018-10-03T08:44:18.785Z,12.50
2018-10-03T08:46:46.613Z,12.40
2018-10-03T08:49:14.496Z,12.30
2018-10-03T08:51:42.350Z,12.20
2018-10-03T08:54:10.236Z,12.20
2018-10-03T08:56:38.220Z,12.20
2018-10-03T08:59:06.192Z,12.10
2018-10-03T09:01:34.117Z,12.20
2018-10-03T09:04:02.026Z,12.40
2018-10-03T09:06:29.894Z,12.20
2018-10-03T09:08:57.890Z,12.30
2018-10-03T09:11:25.844Z,12.30
2018-10-03T09:13:54.278Z,12.50
2018-10-03T09:16:22.181Z,12.80
2018-10-03T09:18:50.290Z,13.10
2018-10-03T09:21:18.300Z,13.10
2018-10-03T09:23:46.041Z,13.10
2018-10-03T09:26:14.008Z,13.10
2018-10-03T09:28:42.123Z,13.10
2018-10-03T09:31:10.031Z,13.00
2018-10-03T09:33:38.021Z,13.00
2018-10-03T09:36:06.092Z,13.00
2018-10-03T09:38:34.273Z,13.10
2018-10-03T09:41:02.443Z,13.10
2018-10-03T09:43:30.369Z,13.10
2018-10-03T09:45:58.413Z,13.20
2018-10-03T09:48:26.541Z,13.30
2018-10-03T09:50:54.596Z,13.50
2018-10-03T09:53:22.520Z,13.40
2018-10-03T09:55:50.588Z,13.30
2018-10-03T09:58:18.469Z,13.20
2018-10-03T10:00:51.681Z,13.30
2018-10-03T10:03:19.702Z,13.50
2018-10-03T10:05:47.659Z,13.60
2018-10-03T10:08:15.511Z,13.60
2018-10-03T10:10:43.367Z,13.70
2018-10-03T10:13:11.392Z,13.80
2018-10-03T10:15:39.444Z,13.80
2018-10-03T10:18:07.401Z,13.60
2018-10-03T10:20:35.345Z,13.80
2018-10-03T10:23:03.244Z,13.80
2018-10-03T10:25:31.141Z,13.90
2018-10-03T10:27:59.150Z,14.10
2018-10-03T10:30:26.922Z,14.00
2018-10-03T10:32:54.928Z,14.10
2018-10-03T10:35:23.035Z,14.10
2018-10-03T10:37:52.461Z,14.10
2018-10-03T10:40:20.399Z,14.00
2018-10-03T10:42:48.284Z,14.00
2018-10-03T10:45:16.363Z,14.00
2018-10-03T10:47:44.305Z,14.20
2018-10-03T10:50:18.750Z,14.40
2018-10-03T10:52:46.685Z,14.50
2018-10-03T10:55:14.938Z,14.50
2018-10-03T10:57:43.015Z,14.50
2018-10-03T11:00:10.456Z,14.30
2018-10-03T11:02:38.598Z,14.20
2018-10-03T11:05:06.593Z,14.40
2018-10-03T11:07:34.592Z,14.40
2018-10-03T11:10:02.715Z,14.50
2018-10-03T11:12:30.700Z,14.50
2018-10-03T11:14:58.677Z,14.40
2018-10-03T11:17:26.793Z,14.30
2018-10-03T11:19:54.736Z,14.50
2018-10-03T11:22:22.909Z,14.40
2018-10-03T11:24:51.259Z,14.20
2018-10-03T11:27:19.480Z,14.20
2018-10-03T11:29:47.671Z,14.30
2018-10-03T11:32:15.738Z,14.10
2018-10-03T11:34:43.650Z,13.90
2018-10-03T11:37:11.749Z,13.70
2018-10-03T11:39:39.672Z,13.90
2018-10-03T11:42:07.752Z,13.90
2018-10-03T11:44:35.714Z,13.80
2018-10-03T11:47:03.730Z,14.00
2018-10-03T11:49:32.180Z,14.00
2018-10-03T11:52:00.132Z,13.80
2018-10-03T11:54:28.157Z,13.80
2018-10-03T11:56:56.349Z,14.00
2018-10-03T11:59:24.388Z,14.30
2018-10-03T12:01:52.361Z,14.50
2018-10-03T12:04:20.377Z,14.50
2018-10-03T12:06:48.401Z,14.30
2018-10-03T12:09:16.514Z,14.30
2018-10-03T12:11:45.177Z,14.20
2018-10-03T12:14:13.080Z,14.20
2018-10-03T12:16:41.372Z,14.30
2018-10-03T12:19:09.253Z,14.40
2018-10-03T12:21:37.290Z,14.50
2018-10-03T12:24:05.295Z,14.30
2018-10-03T12:26:33.338Z,14.40
2018-10-03T12:29:01.473Z,14.30
2018-10-03T12:31:30.477Z,14.50
2018-10-03T12:33:58.518Z,14.50
2018-10-03T12:36:26.465Z,14.40
2018-10-03T12:38:54.588Z,14.20
2018-10-03T12:41:22.817Z,14.30
2018-10-03T12:43:51.046Z,14.10
2018-10-03T12:46:18.935Z,14.20
2018-10-03T12:48:46.861Z,14.40
2018-10-03T12:51:15.384Z,14.50
2018-10-03T12:53:43.471Z,14.40
2018-10-03T12:56:11.472Z,14.30
2018-10-03T12:58:39.427Z,14.40
2018-10-03T13:01:07.614Z,14.40
2018-10-03T13:03:35.478Z,14.30
2018-10-03T13:06:03.554Z,14.20
2018-10-03T13:08:31.795Z,14.10
2018-10-03T13:10:59.901Z,14.30
2018-10-03T13:13:27.789Z,14.40
2018-10-03T13:15:56.186Z,14.40
2018-10-03T13:18:24.199Z,14.40
2018-10-03T13:20:52.531Z,14.60
2018-10-03T13:23:20.429Z,14.60
2018-10-03T13:25:48.459Z,14.60
2018-10-03T13:28:16.614Z,14.50
2018-10-03T13:30:44.643Z,14.60
2018-10-03T13:33:13.449Z,14.40
2018-10-03T13:38:15.760Z,14.50
2018-10-03T13:40:43.607Z,14.50
2018-10-03T13:43:11.454Z,14.40
2018-10-03T13:45:39.781Z,14.40
2018-10-03T13:48:07.719Z,14.50
2018-10-03T13:50:35.781Z,14.50
2018-10-03T13:53:04.333Z,14.40
2018-10-03T13:55:32.416Z,14.50
2018-10-03T13:58:00.362Z,14.60
2018-10-03T14:00:28.432Z,14.70
2018-10-03T14:02:56.423Z,14.70
2018-10-03T14:05:24.420Z,14.60
2018-10-03T14:07:52.511Z,14.60
2018-10-03T14:10:20.650Z,14.60
2018-10-03T14:12:48.581Z,14.70
2018-10-03T14:15:16.537Z,14.60
2018-10-03T14:17:44.769Z,14.60
2018-10-03T14:20:12.857Z,14.60
2018-10-03T14:22:41.074Z,14.50
2018-10-03T14:25:09.186Z,14.50
2018-10-03T14:27:37.259Z,14.50
2018-10-03T14:30:05.599Z,14.50
2018-10-03T14:32:33.544Z,14.40
2018-10-03T14:35:01.666Z,14.30
2018-10-03T14:37:29.627Z,14.40
2018-10-03T14:39:57.792Z,14.50
2018-10-03T14:42:25.857Z,14.20
2018-10-03T14:44:53.825Z,14.20
2018-10-03T14:47:21.759Z,14.10
2018-10-03T14:49:49.723Z,14.10
2018-10-03T14:52:17.771Z,14.10
2018-10-03T14:54:45.739Z,14.20
2018-10-03T14:57:13.668Z,14.10
2018-10-03T14:59:41.694Z,14.20
2018-10-03T15:02:09.661Z,14.10
2018-10-03T15:04:37.868Z,14.10
2018-10-03T15:07:05.982Z,14.10
2018-10-03T15:09:33.982Z,14.10
2018-10-03T15:12:01.922Z,14.20
2018-10-03T15:14:29.912Z,14.30
2018-10-03T15:16:57.838Z,14.20
2018-10-03T15:19:26.196Z,14.10
2018-10-03T15:21:54.289Z,14.10
2018-10-03T15:24:22.626Z,14.10
2018-10-03T15:26:50.498Z,14.10
2018-10-03T15:29:18.501Z,14.00
2018-10-03T15:31:46.441Z,14.00
2018-10-03T15:34:14.407Z,14.10
2018-10-03T15:36:42.472Z,14.00
2018-10-03T15:39:10.721Z,14.00
2018-10-03T15:41:38.804Z,14.00
2018-10-03T15:44:06.828Z,13.80
2018-10-03T15:46:34.776Z,13.80
2018-10-03T15:49:02.737Z,13.90
2018-10-03T15:51:30.783Z,13.90
2018-10-03T15:53:58.820Z,13.90
2018-10-03T15:56:26.672Z,14.00
2018-10-03T15:58:54.608Z,14.00
2018-10-03T16:01:22.496Z,14.00
2018-10-03T16:03:50.754Z,14.00
2018-10-03T16:06:18.942Z,14.00
2018-10-03T16:08:46.816Z,13.90
2018-10-03T16:11:14.675Z,13.90
2018-10-03T16:13:42.528Z,13.80
2018-10-03T16:16:10.528Z,13.70
2018-10-03T16:18:38.564Z,13.50
2018-10-03T16:21:06.674Z,13.40
2018-10-03T16:23:34.899Z,13.40
2018-10-03T16:26:02.955Z,13.40
2018-10-03T16:28:30.867Z,13.40
2018-10-03T16:30:58.838Z,13.40
2018-10-03T16:33:27.062Z,13.40
2018-10-03T16:35:54.973Z,13.40
2018-10-03T16:38:22.928Z,13.30
2018-10-03T16:40:51.050Z,13.30
2018-10-03T16:43:19.011Z,13.30
2018-10-03T16:45:48.314Z,13.20
2018-10-03T16:48:16.237Z,13.10
2018-10-03T16:50:44.901Z,13.00
2018-10-03T16:53:13.967Z,12.80
2018-10-03T16:55:42.300Z,12.70
2018-10-03T16:58:10.938Z,12.60
2018-10-03T17:00:38.989Z,12.50
2018-10-03T17:05:42.539Z,12.00
2018-10-03T17:08:11.553Z,11.90
2018-10-03T17:10:40.337Z,11.60
2018-10-03T17:13:08.640Z,11.50
2018-10-03T17:15:36.645Z,11.40
2018-10-03T17:18:05.107Z,11.30
2018-10-03T17:20:33.225Z,11.30
2018-10-03T17:23:01.201Z,11.20
2018-10-03T17:25:29.489Z,11.10
2018-10-03T17:27:57.509Z,11.10
2018-10-03T17:30:26.203Z,11.00
2018-10-03T17:32:54.419Z,11.00
2018-10-03T17:35:22.468Z,10.90
2018-10-03T17:37:50.805Z,10.80
2018-10-03T17:40:19.008Z,10.60
2018-10-03T17:42:47.119Z,10.50
2018-10-03T17:45:15.213Z,10.40
2018-10-03T17:47:43.288Z,10.50
2018-10-03T17:50:11.370Z,10.40
2018-10-03T17:52:39.500Z,10.40
2018-10-03T17:55:07.359Z,10.40
2018-10-03T17:57:35.394Z,10.40
2018-10-03T18:00:03.704Z,10.30
2018-10-03T18:02:31.986Z,10.30
2018-10-03T18:05:00.189Z,10.40
2018-10-03T18:07:28.670Z,10.40
2018-10-03T18:09:56.911Z,10.40
2018-10-03T18:12:24.997Z,10.50
2018-10-03T18:14:53.008Z,10.60
2018-10-03T18:17:21.107Z,10.60
2018-10-03T18:19:49.468Z,10.50
2018-10-03T18:22:17.547Z,10.50
2018-10-03T18:24:45.842Z,10.60
2018-10-03T18:27:13.736Z,10.60
2018-10-03T18:29:41.903Z,10.50
2018-10-03T18:32:10.247Z,10.40
2018-10-03T18:34:38.553Z,10.40
2018-10-03T18:37:07.053Z,10.40
2018-10-03T18:39:35.519Z,10.30
2018-10-03T18:42:04.636Z,10.20
2018-10-03T18:44:33.100Z,10.20
2018-10-03T18:47:01.675Z,10.10
2018-10-03T18:49:29.985Z,10.00
2018-10-03T18:51:58.380Z,9.90
2018-10-03T18:54:27.165Z,9.70
2018-10-03T18:56:56.314Z,9.70
2018-10-03T18:59:24.888Z,9.70
2018-10-03T19:01:53.806Z,9.80
2018-10-03T19:04:22.724Z,9.70
2018-10-03T19:06:51.276Z,9.70
2018-10-03T19:09:20.264Z,9.50
2018-10-03T19:11:49.056Z,9.40
2018-10-03T19:14:18.039Z,9.30
2018-10-03T19:16:46.839Z,9.20
2018-10-03T19:19:15.420Z,9.20
2018-10-03T19:21:44.110Z,9.20
2018-10-03T19:24:12.396Z,9.30
2018-10-03T19:26:41.457Z,9.30
2018-10-03T19:29:10.151Z,9.30
2018-10-03T19:31:38.716Z,9.30
2018-10-03T19:34:07.303Z,9.30
2018-10-03T19:36:35.808Z,9.30
2018-10-03T19:39:05.357Z,9.30
2018-10-03T19:41:33.858Z,9.30
2018-10-03T19:44:02.254Z,9.30
2018-10-03T19:46:30.739Z,9.20
2018-10-03T19:48:59.551Z,9.20
2018-10-03T19:51:27.828Z,9.10
2018-10-03T19:53:56.081Z,9.00
2018-10-03T19:56:24.372Z,9.00
2018-10-03T19:58:52.548Z,9.00
2018-10-03T20:01:20.976Z,9.10
2018-10-03T20:03:49.237Z,9.10
2018-10-03T20:06:17.267Z,9.10
2018-10-03T20:08:45.431Z,9.10
2018-10-03T20:11:13.948Z,9.10
2018-10-03T20:13:42.037Z,9.10
2018-10-03T20:16:10.281Z,9.00
2018-10-03T20:18:38.704Z,9.10
2018-10-03T20:21:06.743Z,9.10
2018-10-03T20:23:35.154Z,9.00
2018-10-03T20:26:03.355Z,9.00
2018-10-03T20:28:31.275Z,9.00
2018-10-03T20:30:59.561Z,9.00
2018-10-03T20:33:28.187Z,9.00
2018-10-03T20:35:56.391Z,9.00
2018-10-03T20:38:24.263Z,8.90
2018-10-03T20:40:52.377Z,8.80
2018-10-03T20:43:20.379Z,8.80
2018-10-03T20:45:48.331Z,8.80
2018-10-03T20:48:16.647Z,8.70
2018-10-03T20:50:44.620Z,8.70
2018-10-03T20:53:12.634Z,8.70
2018-10-03T20:55:40.559Z,8.60
2018-10-03T20:58:08.597Z,8.60
2018-10-03T21:00:36.666Z,8.50
2018-10-03T21:03:04.608Z,8.50
2018-10-03T21:05:32.685Z,8.50
2018-10-03T21:08:00.757Z,8.50
2018-10-03T21:10:28.660Z,8.40
2018-10-03T21:12:56.760Z,8.40
2018-10-03T21:15:25.005Z,8.30
2018-10-03T21:17:52.914Z,8.20
2018-10-03T21:20:21.000Z,8.20
2018-10-03T21:22:55.296Z,8.20
2018-10-03T21:25:23.298Z,8.10
2018-10-03T21:27:51.089Z,8.10
2018-10-03T21:30:19.062Z,8.10
2018-10-03T21:32:47.001Z,8.10
2018-10-03T21:35:15.162Z,8.00
2018-10-03T21:37:43.017Z,7.90
2018-10-03T21:40:10.896Z,7.90
2018-10-03T21:42:38.860Z,7.80
2018-10-03T21:45:06.814Z,7.70
2018-10-03T21:47:34.640Z,7.70
2018-10-03T21:50:02.358Z,7.70
2018-10-03T21:52:30.273Z,7.70
2018-10-03T21:54:58.241Z,7.70
2018-10-03T21:57:26.174Z,7.60
2018-10-03T21:59:54.154Z,7.60
2018-10-03T22:02:22.064Z,7.60
2018-10-03T22:04:50.018Z,7.50
2018-10-03T22:07:17.938Z,7.40
2018-10-03T22:09:45.950Z,7.40
2018-10-03T22:12:13.944Z,7.40
2018-10-03T22:14:41.846Z,7.40
2018-10-03T22:17:14.961Z,7.40
2018-10-03T22:19:43.007Z,7.30
2018-10-03T22:22:10.801Z,7.20
2018-10-03T22:24:38.593Z,7.10
2018-10-03T22:27:06.780Z,7.00
2018-10-03T22:29:34.677Z,7.00
2018-10-03T22:32:02.506Z,7.00
2018-10-03T22:34:30.444Z,7.00
2018-10-03T22:36:58.187Z,6.90
2018-10-03T22:39:25.974Z,6.90
2018-10-03T22:41:53.963Z,6.80
2018-10-03T22:44:21.897Z,6.70
2018-10-03T22:46:49.708Z,6.70
2018-10-03T22:49:17.675Z,6.60
2018-10-03T22:51:45.555Z,6.50
2018-10-03T22:54:13.347Z,6.50
2018-10-03T22:56:41.193Z,6.50
2018-10-03T22:59:09.190Z,6.50
2018-10-03T23:01:37.023Z,6.50
2018-10-03T23:04:04.891Z,6.50
2018-10-03T23:06:32.946Z,6.40
2018-10-03T23:09:00.712Z,6.40
2018-10-03T23:11:28.470Z,6.40
2018-10-03T23:13:56.205Z,6.40
2018-10-03T23:16:24.046Z,6.50
2018-10-03T23:18:51.775Z,6.40
2018-10-03T23:21:19.562Z,6.40
2018-10-03T23:23:47.320Z,6.40
2018-10-03T23:26:15.295Z,6.40
2018-10-03T23:28:43.023Z,6.30
2018-10-03T23:31:10.926Z,6.30
2018-10-03T23:33:38.678Z,6.20
2018-10-03T23:36:06.615Z,6.20
2018-10-03T23:38:34.380Z,6.20
2018-10-03T23:41:02.347Z,6.20
2018-10-03T23:43:30.303Z,6.10
2018-10-03T23:45:58.128Z,6.10
2018-10-03T23:48:25.960Z,6.10
2018-10-03T23:50:53.862Z,6.10
2018-10-03T23:53:21.805Z,6.00
2018-10-03T23:55:49.817Z,6.00
2018-10-03T23:58:17.726Z,5.90
